sensor_id;sensor_type;location;lat;lon;timestamp;temperature;humidity
15343;DHT22;7771;48.478;8.936;2024-03-08T00:01:47;5.00;99.90
15343;DHT22;7771;48.478;8.936;2024-03-08T00:04:14;4.90;99.90
15343;DHT22;7771;48.478;8.936;2024-03-08T00:06:41;4.90;99.90
15343;DHT22;7771;48.478;8.936;2024-03-08T00:11:37;4.70;99.90
15343;DHT22;7771;48.478;8.936;2024-03-08T00:14:05;4.70;99.90
15343;DHT22;7771;48.478;8.936;2024-03-08T00:16:33;4.70;99.90
15343;DHT22;7771;48.478;8.936;2024-03-08T00:18:59;4.50;99.90
15343;DHT22;7771;48.478;8.936;2024-03-08T00:21:27;4.40;99.90
15343;DHT22;7771;48.478;8.936;2024-03-08T00:23:55;4.40;99.90
15343;DHT22;7771;48.478;8.936;2024-03-08T00:26:22;4.40;99.90
15343;DHT22;7771;48.478;8.936;2024-03-08T00:28:49;4.40;99.90
15343;DHT22;7771;48.478;8.936;2024-03-08T00:31:16;4.30;99.90
15343;DHT22;7771;48.478;8.936;2024-03-08T00:33:43;4.30;99.90
15343;DHT22;7771;48.478;8.936;2024-03-08T00:36:10;4.20;99.90
15343;DHT22;7771;48.478;8.936;2024-03-08T00:38:37;4.20;99.90
15343;DHT22;7771;48.478;8.936;2024-03-08T00:41:05;4.10;99.90
15343;DHT22;7771;48.478;8.936;2024-03-08T00:46:00;4.00;99.90
15343;DHT22;7771;48.478;8.936;2024-03-08T00:48:27;4.00;99.90
15343;DHT22;7771;48.478;8.936;2024-03-08T00:50:54;4.00;99.90
15343;DHT22;7771;48.478;8.936;2024-03-08T00:53:22;4.00;99.90
15343;DHT22;7771;48.478;8.936;2024-03-08T00:55:48;4.00;99.90
15343;DHT22;7771;48.478;8.936;2024-03-08T00:58:16;4.00;99.90
15343;DHT22;7771;48.478;8.936;2024-03-08T01:00:44;3.90;99.90
15343;DHT22;7771;48.478;8.936;2024-03-08T01:03:12;3.80;99.90
15343;DHT22;7771;48.478;8.936;2024-03-08T01:05:38;3.80;99.90
15343;DHT22;7771;48.478;8.936;2024-03-08T01:08:06;3.80;99.90
15343;DHT22;7771;48.478;8.936;2024-03-08T01:10:32;3.80;99.90
15343;DHT22;7771;48.478;8.936;2024-03-08T01:13:01;3.70;99.90
15343;DHT22;7771;48.478;8.936;2024-03-08T01:15:28;3.70;99.90
15343;DHT22;7771;48.478;8.936;2024-03-08T01:17:55;3.70;99.90
15343;DHT22;7771;48.478;8.936;2024-03-08T01:22:50;3.70;99.90
15343;DHT22;7771;48.478;8.936;2024-03-08T01:25:18;3.60;99.90
15343;DHT22;7771;48.478;8.936;2024-03-08T01:27:45;3.60;99.90
15343;DHT22;7771;48.478;8.936;2024-03-08T01:30:13;3.60;99.90
15343;DHT22;7771;48.478;8.936;2024-03-08T01:32:39;3.50;99.90
15343;DHT22;7771;48.478;8.936;2024-03-08T01:35:06;3.50;99.90
15343;DHT22;7771;48.478;8.936;2024-03-08T01:37:33;3.50;99.90
15343;DHT22;7771;48.478;8.936;2024-03-08T01:39:59;3.40;99.90
15343;DHT22;7771;48.478;8.936;2024-03-08T01:42:27;3.50;99.90
15343;DHT22;7771;48.478;8.936;2024-03-08T01:44:55;3.40;99.90
15343;DHT22;7771;48.478;8.936;2024-03-08T01:47:22;3.40;99.90
15343;DHT22;7771;48.478;8.936;2024-03-08T01:49:49;3.40;99.90
15343;DHT22;7771;48.478;8.936;2024-03-08T01:52:17;3.30;99.90
15343;DHT22;7771;48.478;8.936;2024-03-08T01:57:13;3.20;99.90
15343;DHT22;7771;48.478;8.936;2024-03-08T01:59:39;3.20;99.90
15343;DHT22;7771;48.478;8.936;2024-03-08T02:02:06;3.20;99.90
15343;DHT22;7771;48.478;8.936;2024-03-08T02:04:34;3.20;99.90
15343;DHT22;7771;48.478;8.936;2024-03-08T02:07:02;3.20;99.90
15343;DHT22;7771;48.478;8.936;2024-03-08T02:09:29;3.10;99.90
15343;DHT22;7771;48.478;8.936;2024-03-08T02:11:56;3.10;99.90
15343;DHT22;7771;48.478;8.936;2024-03-08T02:14:22;3.10;99.90
15343;DHT22;7771;48.478;8.936;2024-03-08T02:16:49;3.10;99.90
15343;DHT22;7771;48.478;8.936;2024-03-08T02:19:16;3.00;99.90
15343;DHT22;7771;48.478;8.936;2024-03-08T02:21:44;3.00;99.90
15343;DHT22;7771;48.478;8.936;2024-03-08T02:24:10;3.10;99.90
15343;DHT22;7771;48.478;8.936;2024-03-08T02:26:38;3.10;99.90
15343;DHT22;7771;48.478;8.936;2024-03-08T02:29:06;3.10;99.90
15343;DHT22;7771;48.478;8.936;2024-03-08T02:31:32;3.00;99.90
15343;DHT22;7771;48.478;8.936;2024-03-08T02:34:00;3.00;99.90
15343;DHT22;7771;48.478;8.936;2024-03-08T02:38:54;3.00;99.90
15343;DHT22;7771;48.478;8.936;2024-03-08T02:43:49;2.90;99.90
15343;DHT22;7771;48.478;8.936;2024-03-08T02:46:16;3.00;99.90
15343;DHT22;7771;48.478;8.936;2024-03-08T02:48:43;2.90;99.90
15343;DHT22;7771;48.478;8.936;2024-03-08T02:51:10;2.90;99.90
15343;DHT22;7771;48.478;8.936;2024-03-08T02:53:38;2.90;99.90
15343;DHT22;7771;48.478;8.936;2024-03-08T02:56:05;2.80;99.90
15343;DHT22;7771;48.478;8.936;2024-03-08T02:58:32;2.80;99.90
15343;DHT22;7771;48.478;8.936;2024-03-08T03:00:59;2.80;99.90
15343;DHT22;7771;48.478;8.936;2024-03-08T03:03:25;2.80;99.90
15343;DHT22;7771;48.478;8.936;2024-03-08T03:05:53;2.80;99.90
15343;DHT22;7771;48.478;8.936;2024-03-08T03:08:23;2.70;99.90
15343;DHT22;7771;48.478;8.936;2024-03-08T03:10:49;2.70;99.90
15343;DHT22;7771;48.478;8.936;2024-03-08T03:15:45;2.60;99.90
15343;DHT22;7771;48.478;8.936;2024-03-08T03:18:11;2.60;99.90
15343;DHT22;7771;48.478;8.936;2024-03-08T03:20:38;2.60;99.90
15343;DHT22;7771;48.478;8.936;2024-03-08T03:23:07;2.50;99.90
15343;DHT22;7771;48.478;8.936;2024-03-08T03:25:34;2.50;99.90
15343;DHT22;7771;48.478;8.936;2024-03-08T03:28:02;2.50;99.90
15343;DHT22;7771;48.478;8.936;2024-03-08T03:30:29;2.50;99.90
15343;DHT22;7771;48.478;8.936;2024-03-08T03:32:59;2.50;99.90
15343;DHT22;7771;48.478;8.936;2024-03-08T03:35:27;2.50;99.90
15343;DHT22;7771;48.478;8.936;2024-03-08T03:40:28;2.40;99.90
15343;DHT22;7771;48.478;8.936;2024-03-08T03:42:55;2.50;99.90
15343;DHT22;7771;48.478;8.936;2024-03-08T03:45:22;2.50;99.90
15343;DHT22;7771;48.478;8.936;2024-03-08T03:47:49;2.40;99.90
15343;DHT22;7771;48.478;8.936;2024-03-08T03:50:17;2.40;99.90
15343;DHT22;7771;48.478;8.936;2024-03-08T03:52:45;2.30;99.90
15343;DHT22;7771;48.478;8.936;2024-03-08T03:55:11;2.30;99.90
15343;DHT22;7771;48.478;8.936;2024-03-08T03:57:38;2.30;99.90
15343;DHT22;7771;48.478;8.936;2024-03-08T04:00:06;2.20;99.90
15343;DHT22;7771;48.478;8.936;2024-03-08T04:02:38;2.20;99.90
15343;DHT22;7771;48.478;8.936;2024-03-08T04:05:06;2.20;99.90
15343;DHT22;7771;48.478;8.936;2024-03-08T04:07:33;2.20;99.90
15343;DHT22;7771;48.478;8.936;2024-03-08T04:10:00;2.20;99.90
15343;DHT22;7771;48.478;8.936;2024-03-08T04:12:27;2.20;99.90
15343;DHT22;7771;48.478;8.936;2024-03-08T04:14:53;2.10;99.90
15343;DHT22;7771;48.478;8.936;2024-03-08T04:17:21;2.10;99.90
15343;DHT22;7771;48.478;8.936;2024-03-08T04:19:47;2.10;99.90
15343;DHT22;7771;48.478;8.936;2024-03-08T04:22:15;2.10;99.90
15343;DHT22;7771;48.478;8.936;2024-03-08T04:24:42;2.10;99.90
15343;DHT22;7771;48.478;8.936;2024-03-08T04:27:10;2.10;99.90
15343;DHT22;7771;48.478;8.936;2024-03-08T04:29:37;2.10;99.90
15343;DHT22;7771;48.478;8.936;2024-03-08T04:32:05;2.10;99.90
15343;DHT22;7771;48.478;8.936;2024-03-08T04:34:33;2.20;99.90
15343;DHT22;7771;48.478;8.936;2024-03-08T04:37:02;2.20;99.90
15343;DHT22;7771;48.478;8.936;2024-03-08T04:39:29;2.20;99.90
15343;DHT22;7771;48.478;8.936;2024-03-08T04:41:56;2.20;99.90
15343;DHT22;7771;48.478;8.936;2024-03-08T04:44:23;2.30;99.90
15343;DHT22;7771;48.478;8.936;2024-03-08T04:46:50;2.30;99.90
15343;DHT22;7771;48.478;8.936;2024-03-08T04:49:17;2.30;99.90
15343;DHT22;7771;48.478;8.936;2024-03-08T04:51:44;2.30;99.90
15343;DHT22;7771;48.478;8.936;2024-03-08T04:54:12;2.40;99.90
15343;DHT22;7771;48.478;8.936;2024-03-08T04:59:08;2.40;99.90
15343;DHT22;7771;48.478;8.936;2024-03-08T05:01:34;2.40;99.90
15343;DHT22;7771;48.478;8.936;2024-03-08T05:04:04;2.50;99.90
15343;DHT22;7771;48.478;8.936;2024-03-08T05:06:31;2.50;99.90
15343;DHT22;7771;48.478;8.936;2024-03-08T05:08:58;2.50;99.90
15343;DHT22;7771;48.478;8.936;2024-03-08T05:11:25;2.50;99.90
15343;DHT22;7771;48.478;8.936;2024-03-08T05:13:52;2.50;99.90
15343;DHT22;7771;48.478;8.936;2024-03-08T05:16:20;2.60;99.90
15343;DHT22;7771;48.478;8.936;2024-03-08T05:18:48;2.70;99.90
15343;DHT22;7771;48.478;8.936;2024-03-08T05:21:15;2.70;99.90
15343;DHT22;7771;48.478;8.936;2024-03-08T05:26:09;2.80;99.90
15343;DHT22;7771;48.478;8.936;2024-03-08T05:28:36;2.80;99.90
15343;DHT22;7771;48.478;8.936;2024-03-08T05:31:03;2.80;99.90
15343;DHT22;7771;48.478;8.936;2024-03-08T05:33:31;2.80;99.90
15343;DHT22;7771;48.478;8.936;2024-03-08T05:35:57;2.80;99.90
15343;DHT22;7771;48.478;8.936;2024-03-08T05:38:24;2.90;99.90
15343;DHT22;7771;48.478;8.936;2024-03-08T05:40:51;2.90;99.90
15343;DHT22;7771;48.478;8.936;2024-03-08T05:43:19;2.90;99.90
15343;DHT22;7771;48.478;8.936;2024-03-08T05:45:46;3.00;99.90
15343;DHT22;7771;48.478;8.936;2024-03-08T05:48:13;3.00;99.90
15343;DHT22;7771;48.478;8.936;2024-03-08T05:50:43;3.10;99.90
15343;DHT22;7771;48.478;8.936;2024-03-08T05:53:08;3.10;99.90
15343;DHT22;7771;48.478;8.936;2024-03-08T05:55:35;3.20;99.90
15343;DHT22;7771;48.478;8.936;2024-03-08T05:58:02;3.20;99.90
15343;DHT22;7771;48.478;8.936;2024-03-08T06:00:28;3.20;99.90
15343;DHT22;7771;48.478;8.936;2024-03-08T06:02:55;3.30;99.90
15343;DHT22;7771;48.478;8.936;2024-03-08T06:05:23;3.30;99.90
15343;DHT22;7771;48.478;8.936;2024-03-08T06:07:50;3.30;99.90
15343;DHT22;7771;48.478;8.936;2024-03-08T06:10:16;3.40;99.90
15343;DHT22;7771;48.478;8.936;2024-03-08T06:12:43;3.40;99.90
15343;DHT22;7771;48.478;8.936;2024-03-08T06:15:10;3.40;99.90
15343;DHT22;7771;48.478;8.936;2024-03-08T06:17:37;3.40;99.90
15343;DHT22;7771;48.478;8.936;2024-03-08T06:20:05;3.40;99.90
15343;DHT22;7771;48.478;8.936;2024-03-08T06:22:32;3.50;99.90
15343;DHT22;7771;48.478;8.936;2024-03-08T06:25:00;3.50;99.90
15343;DHT22;7771;48.478;8.936;2024-03-08T06:27:26;3.50;99.90
15343;DHT22;7771;48.478;8.936;2024-03-08T06:29:54;3.60;99.90
15343;DHT22;7771;48.478;8.936;2024-03-08T06:32:20;3.70;99.90
15343;DHT22;7771;48.478;8.936;2024-03-08T06:34:48;3.70;99.90
15343;DHT22;7771;48.478;8.936;2024-03-08T06:37:16;3.70;99.90
15343;DHT22;7771;48.478;8.936;2024-03-08T06:39:43;3.80;99.90
15343;DHT22;7771;48.478;8.936;2024-03-08T06:42:10;3.80;99.90
15343;DHT22;7771;48.478;8.936;2024-03-08T06:44:37;3.80;99.90
15343;DHT22;7771;48.478;8.936;2024-03-08T06:47:03;3.90;99.90
15343;DHT22;7771;48.478;8.936;2024-03-08T06:49:31;3.90;99.90
15343;DHT22;7771;48.478;8.936;2024-03-08T06:51:57;3.90;99.90
15343;DHT22;7771;48.478;8.936;2024-03-08T06:54:24;4.00;99.90
15343;DHT22;7771;48.478;8.936;2024-03-08T07:01:47;4.10;99.90
15343;DHT22;7771;48.478;8.936;2024-03-08T07:04:16;4.20;99.90
15343;DHT22;7771;48.478;8.936;2024-03-08T07:06:43;4.20;99.90
15343;DHT22;7771;48.478;8.936;2024-03-08T07:09:09;4.20;99.90
15343;DHT22;7771;48.478;8.936;2024-03-08T07:11:37;4.30;99.90
15343;DHT22;7771;48.478;8.936;2024-03-08T07:14:05;4.30;99.90
15343;DHT22;7771;48.478;8.936;2024-03-08T07:21:28;4.40;99.90
15343;DHT22;7771;48.478;8.936;2024-03-08T07:23:55;4.40;99.90
15343;DHT22;7771;48.478;8.936;2024-03-08T07:26:25;4.40;99.90
15343;DHT22;7771;48.478;8.936;2024-03-08T07:28:52;4.40;99.90
15343;DHT22;7771;48.478;8.936;2024-03-08T07:33:48;4.50;99.90
15343;DHT22;7771;48.478;8.936;2024-03-08T07:36:14;4.60;99.90
15343;DHT22;7771;48.478;8.936;2024-03-08T07:38:42;4.60;99.90
15343;DHT22;7771;48.478;8.936;2024-03-08T07:43:54;4.70;99.90
15343;DHT22;7771;48.478;8.936;2024-03-08T07:46:21;4.70;99.90
15343;DHT22;7771;48.478;8.936;2024-03-08T07:48:48;4.70;99.90
15343;DHT22;7771;48.478;8.936;2024-03-08T07:51:16;4.80;99.90
15343;DHT22;7771;48.478;8.936;2024-03-08T07:53:42;4.80;99.90
15343;DHT22;7771;48.478;8.936;2024-03-08T07:56:09;4.80;99.90
15343;DHT22;7771;48.478;8.936;2024-03-08T07:58:36;4.90;99.90
15343;DHT22;7771;48.478;8.936;2024-03-08T08:03:32;4.90;99.90
15343;DHT22;7771;48.478;8.936;2024-03-08T08:05:59;5.00;99.90
15343;DHT22;7771;48.478;8.936;2024-03-08T08:08:26;5.00;99.90
15343;DHT22;7771;48.478;8.936;2024-03-08T08:10:53;5.10;99.90
15343;DHT22;7771;48.478;8.936;2024-03-08T08:15:48;5.20;99.90
15343;DHT22;7771;48.478;8.936;2024-03-08T08:18:15;5.20;99.90
15343;DHT22;7771;48.478;8.936;2024-03-08T08:20:43;5.30;99.90
15343;DHT22;7771;48.478;8.936;2024-03-08T08:23:10;5.40;99.90
15343;DHT22;7771;48.478;8.936;2024-03-08T08:25:37;5.50;99.90
15343;DHT22;7771;48.478;8.936;2024-03-08T08:28:05;5.50;99.90
15343;DHT22;7771;48.478;8.936;2024-03-08T08:30:31;5.60;99.90
15343;DHT22;7771;48.478;8.936;2024-03-08T08:37:54;5.90;99.90
15343;DHT22;7771;48.478;8.936;2024-03-08T08:40:21;5.90;99.90
15343;DHT22;7771;48.478;8.936;2024-03-08T08:45:16;6.00;99.90
15343;DHT22;7771;48.478;8.936;2024-03-08T08:47:43;6.10;99.90
15343;DHT22;7771;48.478;8.936;2024-03-08T08:50:10;6.10;99.90
15343;DHT22;7771;48.478;8.936;2024-03-08T08:52:39;6.10;99.90
15343;DHT22;7771;48.478;8.936;2024-03-08T08:55:06;6.20;99.90
15343;DHT22;7771;48.478;8.936;2024-03-08T08:57:34;6.30;99.90
15343;DHT22;7771;48.478;8.936;2024-03-08T09:00:01;6.30;99.90
15343;DHT22;7771;48.478;8.936;2024-03-08T09:02:27;6.40;99.90
15343;DHT22;7771;48.478;8.936;2024-03-08T09:04:55;6.30;99.90
15343;DHT22;7771;48.478;8.936;2024-03-08T09:07:22;6.40;99.90
15343;DHT22;7771;48.478;8.936;2024-03-08T09:09:48;6.40;99.90
15343;DHT22;7771;48.478;8.936;2024-03-08T09:12:15;6.40;99.90
15343;DHT22;7771;48.478;8.936;2024-03-08T09:14:42;6.50;99.90
15343;DHT22;7771;48.478;8.936;2024-03-08T09:17:09;6.50;99.90
15343;DHT22;7771;48.478;8.936;2024-03-08T09:19:37;6.60;99.90
15343;DHT22;7771;48.478;8.936;2024-03-08T09:22:04;6.60;99.90
15343;DHT22;7771;48.478;8.936;2024-03-08T09:24:31;6.70;99.90
15343;DHT22;7771;48.478;8.936;2024-03-08T09:26:58;6.70;99.90
15343;DHT22;7771;48.478;8.936;2024-03-08T09:29:27;6.80;99.90
15343;DHT22;7771;48.478;8.936;2024-03-08T09:31:55;6.80;99.90
15343;DHT22;7771;48.478;8.936;2024-03-08T09:34:22;6.80;99.90
15343;DHT22;7771;48.478;8.936;2024-03-08T09:36:48;6.90;99.90
15343;DHT22;7771;48.478;8.936;2024-03-08T09:41:43;6.90;99.90
15343;DHT22;7771;48.478;8.936;2024-03-08T09:44:11;7.00;99.90
15343;DHT22;7771;48.478;8.936;2024-03-08T09:46:38;7.00;99.90
15343;DHT22;7771;48.478;8.936;2024-03-08T09:49:06;7.00;99.90
15343;DHT22;7771;48.478;8.936;2024-03-08T09:51:33;7.10;99.90
15343;DHT22;7771;48.478;8.936;2024-03-08T09:53:58;7.10;99.90
15343;DHT22;7771;48.478;8.936;2024-03-08T09:56:25;7.10;99.90
15343;DHT22;7771;48.478;8.936;2024-03-08T09:58:52;7.20;99.90
15343;DHT22;7771;48.478;8.936;2024-03-08T10:01:35;7.30;99.90
15343;DHT22;7771;48.478;8.936;2024-03-08T10:04:02;7.30;99.90
15343;DHT22;7771;48.478;8.936;2024-03-08T10:06:29;7.30;99.90
15343;DHT22;7771;48.478;8.936;2024-03-08T10:08:56;7.30;99.90
15343;DHT22;7771;48.478;8.936;2024-03-08T10:11:25;7.40;99.90
15343;DHT22;7771;48.478;8.936;2024-03-08T10:13:51;7.40;99.90
15343;DHT22;7771;48.478;8.936;2024-03-08T10:16:19;7.50;99.90
15343;DHT22;7771;48.478;8.936;2024-03-08T10:18:46;7.50;99.90
15343;DHT22;7771;48.478;8.936;2024-03-08T10:21:13;7.60;99.90
15343;DHT22;7771;48.478;8.936;2024-03-08T10:23:42;7.70;99.90
15343;DHT22;7771;48.478;8.936;2024-03-08T10:26:11;7.70;99.90
15343;DHT22;7771;48.478;8.936;2024-03-08T10:28:37;7.80;99.90
15343;DHT22;7771;48.478;8.936;2024-03-08T10:31:04;7.90;99.90
15343;DHT22;7771;48.478;8.936;2024-03-08T10:33:31;8.00;99.90
15343;DHT22;7771;48.478;8.936;2024-03-08T10:35:58;8.00;99.90
15343;DHT22;7771;48.478;8.936;2024-03-08T10:40:54;8.00;99.90
15343;DHT22;7771;48.478;8.936;2024-03-08T10:43:23;8.10;99.90
15343;DHT22;7771;48.478;8.936;2024-03-08T10:45:56;8.10;99.90
15343;DHT22;7771;48.478;8.936;2024-03-08T10:48:29;8.20;99.90
15343;DHT22;7771;48.478;8.936;2024-03-08T10:53:26;8.40;99.90
15343;DHT22;7771;48.478;8.936;2024-03-08T10:55:51;8.50;99.90
15343;DHT22;7771;48.478;8.936;2024-03-08T10:58:18;8.60;99.90
15343;DHT22;7771;48.478;8.936;2024-03-08T11:03:53;8.90;99.90
15343;DHT22;7771;48.478;8.936;2024-03-08T11:06:05;9.10;99.90
15343;DHT22;7771;48.478;8.936;2024-03-08T11:08:31;9.30;99.90
15343;DHT22;7771;48.478;8.936;2024-03-08T11:10:59;9.50;99.90
15343;DHT22;7771;48.478;8.936;2024-03-08T11:15:59;10.10;99.90
15343;DHT22;7771;48.478;8.936;2024-03-08T11:18:26;10.30;99.90
15343;DHT22;7771;48.478;8.936;2024-03-08T11:20:54;10.40;99.90
15343;DHT22;7771;48.478;8.936;2024-03-08T11:23:23;10.50;99.90
15343;DHT22;7771;48.478;8.936;2024-03-08T11:25:50;10.50;99.90
15343;DHT22;7771;48.478;8.936;2024-03-08T11:28:18;10.50;99.90
15343;DHT22;7771;48.478;8.936;2024-03-08T11:30:45;10.50;99.90
15343;DHT22;7771;48.478;8.936;2024-03-08T11:33:12;10.40;99.90
15343;DHT22;7771;48.478;8.936;2024-03-08T11:35:39;10.40;99.90
15343;DHT22;7771;48.478;8.936;2024-03-08T11:38:07;10.40;99.90
15343;DHT22;7771;48.478;8.936;2024-03-08T11:40:32;10.50;99.90
15343;DHT22;7771;48.478;8.936;2024-03-08T11:47:57;10.40;99.90
15343;DHT22;7771;48.478;8.936;2024-03-08T11:50:23;10.40;99.90
15343;DHT22;7771;48.478;8.936;2024-03-08T11:52:51;10.40;99.90
15343;DHT22;7771;48.478;8.936;2024-03-08T11:55:18;10.30;99.90
15343;DHT22;7771;48.478;8.936;2024-03-08T11:57:45;10.20;99.90
15343;DHT22;7771;48.478;8.936;2024-03-08T12:00:16;10.20;99.90
15343;DHT22;7771;48.478;8.936;2024-03-08T12:03:02;10.10;99.90
15343;DHT22;7771;48.478;8.936;2024-03-08T12:05:28;10.20;99.90
15343;DHT22;7771;48.478;8.936;2024-03-08T12:07:57;10.40;99.90
15343;DHT22;7771;48.478;8.936;2024-03-08T12:12:52;10.30;99.90
15343;DHT22;7771;48.478;8.936;2024-03-08T12:15:20;10.40;99.90
15343;DHT22;7771;48.478;8.936;2024-03-08T12:17:47;10.50;99.90
15343;DHT22;7771;48.478;8.936;2024-03-08T12:20:16;10.50;99.90
15343;DHT22;7771;48.478;8.936;2024-03-08T12:22:44;10.50;99.90
15343;DHT22;7771;48.478;8.936;2024-03-08T12:25:11;10.50;99.90
15343;DHT22;7771;48.478;8.936;2024-03-08T12:27:38;10.60;99.90
15343;DHT22;7771;48.478;8.936;2024-03-08T12:30:17;10.60;99.90
15343;DHT22;7771;48.478;8.936;2024-03-08T12:32:48;10.70;99.90
15343;DHT22;7771;48.478;8.936;2024-03-08T12:35:13;10.80;99.90
15343;DHT22;7771;48.478;8.936;2024-03-08T12:37:41;10.80;99.90
15343;DHT22;7771;48.478;8.936;2024-03-08T12:40:09;10.90;99.90
15343;DHT22;7771;48.478;8.936;2024-03-08T12:42:35;10.90;99.90
15343;DHT22;7771;48.478;8.936;2024-03-08T12:45:02;10.80;99.90
15343;DHT22;7771;48.478;8.936;2024-03-08T12:47:29;10.90;99.90
15343;DHT22;7771;48.478;8.936;2024-03-08T12:49:56;10.90;99.90
15343;DHT22;7771;48.478;8.936;2024-03-08T12:52:22;10.80;99.90
15343;DHT22;7771;48.478;8.936;2024-03-08T12:54:49;10.90;99.90
15343;DHT22;7771;48.478;8.936;2024-03-08T12:57:18;11.00;99.90
15343;DHT22;7771;48.478;8.936;2024-03-08T13:04:40;11.10;99.90
15343;DHT22;7771;48.478;8.936;2024-03-08T13:07:08;11.20;99.90
15343;DHT22;7771;48.478;8.936;2024-03-08T13:09:35;11.30;99.90
15343;DHT22;7771;48.478;8.936;2024-03-08T13:14:30;11.30;99.90
15343;DHT22;7771;48.478;8.936;2024-03-08T13:16:57;11.30;99.90
15343;DHT22;7771;48.478;8.936;2024-03-08T13:19:24;11.30;99.90
15343;DHT22;7771;48.478;8.936;2024-03-08T13:21:51;11.30;99.90
15343;DHT22;7771;48.478;8.936;2024-03-08T13:24:18;11.30;99.90
15343;DHT22;7771;48.478;8.936;2024-03-08T13:26:45;11.30;99.90
15343;DHT22;7771;48.478;8.936;2024-03-08T13:29:13;11.30;99.90
15343;DHT22;7771;48.478;8.936;2024-03-08T13:31:40;11.40;99.90
15343;DHT22;7771;48.478;8.936;2024-03-08T13:34:09;11.40;99.90
15343;DHT22;7771;48.478;8.936;2024-03-08T13:36:35;11.40;99.90
15343;DHT22;7771;48.478;8.936;2024-03-08T13:39:03;11.40;99.90
15343;DHT22;7771;48.478;8.936;2024-03-08T13:41:31;11.40;99.90
15343;DHT22;7771;48.478;8.936;2024-03-08T13:43:58;11.50;99.90
15343;DHT22;7771;48.478;8.936;2024-03-08T13:46:25;11.50;99.90
15343;DHT22;7771;48.478;8.936;2024-03-08T13:48:52;11.50;99.90
15343;DHT22;7771;48.478;8.936;2024-03-08T13:51:19;11.60;99.90
15343;DHT22;7771;48.478;8.936;2024-03-08T13:53:46;11.50;99.90
15343;DHT22;7771;48.478;8.936;2024-03-08T13:58:42;11.50;99.90
15343;DHT22;7771;48.478;8.936;2024-03-08T14:01:09;11.50;99.90
15343;DHT22;7771;48.478;8.936;2024-03-08T14:03:36;11.50;99.90
15343;DHT22;7771;48.478;8.936;2024-03-08T14:06:03;11.60;99.90
15343;DHT22;7771;48.478;8.936;2024-03-08T14:08:30;11.60;99.90
15343;DHT22;7771;48.478;8.936;2024-03-08T14:10:57;11.50;99.90
15343;DHT22;7771;48.478;8.936;2024-03-08T14:13:24;11.60;99.90
15343;DHT22;7771;48.478;8.936;2024-03-08T14:15:52;11.60;99.90
15343;DHT22;7771;48.478;8.936;2024-03-08T14:18:20;11.60;99.90
15343;DHT22;7771;48.478;8.936;2024-03-08T14:20:46;11.50;99.90
15343;DHT22;7771;48.478;8.936;2024-03-08T14:23:14;11.40;99.90
15343;DHT22;7771;48.478;8.936;2024-03-08T14:25:40;11.40;99.90
15343;DHT22;7771;48.478;8.936;2024-03-08T14:28:08;11.40;99.90
15343;DHT22;7771;48.478;8.936;2024-03-08T14:35:33;11.50;99.90
15343;DHT22;7771;48.478;8.936;2024-03-08T14:38:00;11.50;99.90
15343;DHT22;7771;48.478;8.936;2024-03-08T14:40:27;11.50;99.90
15343;DHT22;7771;48.478;8.936;2024-03-08T14:42:54;11.50;99.90
15343;DHT22;7771;48.478;8.936;2024-03-08T14:45:22;11.50;99.90
15343;DHT22;7771;48.478;8.936;2024-03-08T14:47:49;11.60;99.90
15343;DHT22;7771;48.478;8.936;2024-03-08T14:52:44;11.60;99.90
15343;DHT22;7771;48.478;8.936;2024-03-08T14:55:11;11.50;99.90
15343;DHT22;7771;48.478;8.936;2024-03-08T14:57:37;11.50;99.90
15343;DHT22;7771;48.478;8.936;2024-03-08T15:02:33;11.50;99.90
15343;DHT22;7771;48.478;8.936;2024-03-08T15:05:00;11.40;99.90
15343;DHT22;7771;48.478;8.936;2024-03-08T15:07:27;11.40;99.90
15343;DHT22;7771;48.478;8.936;2024-03-08T15:09:54;11.50;99.90
15343;DHT22;7771;48.478;8.936;2024-03-08T15:14:49;11.40;99.90
15343;DHT22;7771;48.478;8.936;2024-03-08T15:19:45;11.40;99.90
15343;DHT22;7771;48.478;8.936;2024-03-08T15:22:12;11.30;99.90
15343;DHT22;7771;48.478;8.936;2024-03-08T15:27:06;11.30;99.90
15343;DHT22;7771;48.478;8.936;2024-03-08T15:29:33;11.30;99.90
15343;DHT22;7771;48.478;8.936;2024-03-08T15:32:00;11.30;99.90
15343;DHT22;7771;48.478;8.936;2024-03-08T15:34:28;11.20;99.90
15343;DHT22;7771;48.478;8.936;2024-03-08T15:36:54;11.30;99.90
15343;DHT22;7771;48.478;8.936;2024-03-08T15:41:50;11.20;99.90
15343;DHT22;7771;48.478;8.936;2024-03-08T15:44:18;11.20;99.90
15343;DHT22;7771;48.478;8.936;2024-03-08T15:46:44;11.20;99.90
15343;DHT22;7771;48.478;8.936;2024-03-08T15:49:12;11.20;99.90
15343;DHT22;7771;48.478;8.936;2024-03-08T15:51:39;11.20;99.90
15343;DHT22;7771;48.478;8.936;2024-03-08T15:54:06;11.10;99.90
15343;DHT22;7771;48.478;8.936;2024-03-08T15:56:33;11.10;99.90
15343;DHT22;7771;48.478;8.936;2024-03-08T16:01:30;11.10;99.90
15343;DHT22;7771;48.478;8.936;2024-03-08T16:03:57;11.10;99.90
15343;DHT22;7771;48.478;8.936;2024-03-08T16:06:25;11.10;99.90
15343;DHT22;7771;48.478;8.936;2024-03-08T16:08:51;11.00;99.90
15343;DHT22;7771;48.478;8.936;2024-03-08T16:11:19;11.00;99.90
15343;DHT22;7771;48.478;8.936;2024-03-08T16:13:46;10.90;99.90
15343;DHT22;7771;48.478;8.936;2024-03-08T16:16:13;10.80;99.90
15343;DHT22;7771;48.478;8.936;2024-03-08T16:18:41;10.80;99.90
15343;DHT22;7771;48.478;8.936;2024-03-08T16:21:07;10.80;99.90
15343;DHT22;7771;48.478;8.936;2024-03-08T16:26:02;10.70;99.90
15343;DHT22;7771;48.478;8.936;2024-03-08T16:28:29;10.70;99.90
15343;DHT22;7771;48.478;8.936;2024-03-08T16:30:57;10.70;99.90
15343;DHT22;7771;48.478;8.936;2024-03-08T16:33:25;10.60;99.90
15343;DHT22;7771;48.478;8.936;2024-03-08T16:35:52;10.60;99.90
15343;DHT22;7771;48.478;8.936;2024-03-08T16:38:19;10.50;99.90
15343;DHT22;7771;48.478;8.936;2024-03-08T16:40:48;10.40;99.90
15343;DHT22;7771;48.478;8.936;2024-03-08T16:43:12;10.30;99.90
15343;DHT22;7771;48.478;8.936;2024-03-08T16:45:40;10.40;99.90
15343;DHT22;7771;48.478;8.936;2024-03-08T16:48:06;10.40;99.90
15343;DHT22;7771;48.478;8.936;2024-03-08T16:50:34;10.30;99.90
15343;DHT22;7771;48.478;8.936;2024-03-08T16:53:01;10.30;99.90
15343;DHT22;7771;48.478;8.936;2024-03-08T16:55:28;10.30;99.90
15343;DHT22;7771;48.478;8.936;2024-03-08T16:57:55;10.20;99.90
15343;DHT22;7771;48.478;8.936;2024-03-08T17:00:23;10.20;99.90
15343;DHT22;7771;48.478;8.936;2024-03-08T17:02:51;10.10;99.90
15343;DHT22;7771;48.478;8.936;2024-03-08T17:05:17;10.10;99.90
15343;DHT22;7771;48.478;8.936;2024-03-08T17:07:46;10.00;99.90
15343;DHT22;7771;48.478;8.936;2024-03-08T17:10:14;10.00;99.90
15343;DHT22;7771;48.478;8.936;2024-03-08T17:12:42;10.00;99.90
15343;DHT22;7771;48.478;8.936;2024-03-08T17:15:10;9.90;99.90
15343;DHT22;7771;48.478;8.936;2024-03-08T17:20:05;9.80;99.90
15343;DHT22;7771;48.478;8.936;2024-03-08T17:22:32;9.70;99.90
15343;DHT22;7771;48.478;8.936;2024-03-08T17:25:00;9.70;99.90
15343;DHT22;7771;48.478;8.936;2024-03-08T17:27:27;9.60;99.90
15343;DHT22;7771;48.478;8.936;2024-03-08T17:29:55;9.50;99.90
15343;DHT22;7771;48.478;8.936;2024-03-08T17:32:23;9.50;99.90
15343;DHT22;7771;48.478;8.936;2024-03-08T17:34:49;9.50;99.90
15343;DHT22;7771;48.478;8.936;2024-03-08T17:37:17;9.40;99.90
15343;DHT22;7771;48.478;8.936;2024-03-08T17:39:45;9.40;99.90
15343;DHT22;7771;48.478;8.936;2024-03-08T17:42:11;9.30;99.90
15343;DHT22;7771;48.478;8.936;2024-03-08T17:44:39;9.20;99.90
15343;DHT22;7771;48.478;8.936;2024-03-08T17:47:06;9.20;99.90